Spencer Creek (Missouri), Plum Creek (05508805)

StateMissouriLatestPoor (12 cfs)
RiverSpencer CreekRatingObservedEstimated
Updated2020-07-13 15:00 (45 minutes ago)Flood - The river is flooding. Obstacles can be treacherous or deadly. The river should be avoided at this stage for casual trips and definitely for the inexperienced. Trips should be attempted only with protective gear and equipment.Flood(none)792
Discharge12 cfs (median: 12 cfs)High - The river is high and potentially dangerous, especially for the young and / or inexperienced. Normal stream obstacles are sometimes difficult to navigate. Extended distances can be attempted, but canoe travel may not be advisable.High(none)167
Height1.68 feetGood - Conditions are ideal for a canoe or kayak. Boats typically will drag on fewer than one-quarter of riffles, if at all, and portages are unnecessary or rare. Normal float lengths can be attempted without a problem.Good(none)57
TrendFalling (falling over 24 hours)Low - River is low but can still be floated. Some riffles are okay but most come with significant dragging and might need a portage. Float lengths should be reduced to accommodate low flow, dragging, and portages.Low(none)30
USGSExternal icon USGS Site (External icon Google Maps)Poor - River is too low to float comfortably. Most or all riffles will drag or must be portaged and some obstacles (such as slick shelf rock) cause undue problems. Avoid the river at this stage for casual paddling trips.Poor(none)6

Trending Data

Plot Image

Trips for Spencer Creek (Missouri), Plum Creek (05508805)

DateStartEndDistanceConditionDischargeHeightFishingDetails

A total of 0 rows are displayed.

Condition Descriptions

Fishing Conditions

Fish Species

Notes

Classic Trip List

The classic River Trips application is still available for use. It is updated with the new system using a data retrofit. It is no longer maintained. The original River Trips application is no longer updated (as of 1 Dec 2016) but can be checked for errors or for the condition of the data before it was converted to the new system.

Gauge Data Table

ObservationHeightDischargeMaximum
Discharge
Minimum
Discharge
Mean
Discharge
P05P10P20P25P50
(Median)
P75P80P90P95
2020-07-13 15:00 1.68 12 471 (2008) 0 (2012) 50 1 1 4 4 12 38 55 197 298
2020-07-13 14:30 1.70 13 471 (2008) 0 (2012) 50 1 1 4 4 12 38 55 197 298
2020-07-13 14:00 1.70 13 471 (2008) 0 (2012) 50 1 1 4 4 12 38 55 197 298
2020-07-13 13:30 1.70 13 471 (2008) 0 (2012) 50 1 1 4 4 12 38 55 197 298
2020-07-13 13:00 1.68 12 471 (2008) 0 (2012) 50 1 1 4 4 12 38 55 197 298
2020-07-13 12:30 1.68 12 471 (2008) 0 (2012) 50 1 1 4 4 12 38 55 197 298
2020-07-13 12:00 1.70 13 471 (2008) 0 (2012) 50 1 1 4 4 12 38 55 197 298
2020-07-13 11:30 1.68 12 471 (2008) 0 (2012) 50 1 1 4 4 12 38 55 197 298
2020-07-13 11:00 1.71 13 471 (2008) 0 (2012) 50 1 1 4 4 12 38 55 197 298
2020-07-13 10:30 1.71 13 471 (2008) 0 (2012) 50 1 1 4 4 12 38 55 197 298
2020-07-13 10:00 1.70 13 471 (2008) 0 (2012) 50 1 1 4 4 12 38 55 197 298
2020-07-13 09:30 1.69 12 471 (2008) 0 (2012) 50 1 1 4 4 12 38 55 197 298
2020-07-13 09:00 1.69 12 471 (2008) 0 (2012) 50 1 1 4 4 12 38 55 197 298
2020-07-13 08:30 1.66 11 471 (2008) 0 (2012) 50 1 1 4 4 12 38 55 197 298
2020-07-13 08:00 1.66 11 471 (2008) 0 (2012) 50 1 1 4 4 12 38 55 197 298
2020-07-13 07:30 1.66 11 471 (2008) 0 (2012) 50 1 1 4 4 12 38 55 197 298
2020-07-13 07:00 1.66 11 471 (2008) 0 (2012) 50 1 1 4 4 12 38 55 197 298
2020-07-13 06:30 1.66 11 471 (2008) 0 (2012) 50 1 1 4 4 12 38 55 197 298
2020-07-13 06:00 1.70 13 471 (2008) 0 (2012) 50 1 1 4 4 12 38 55 197 298
2020-07-13 05:30 1.70 13 471 (2008) 0 (2012) 50 1 1 4 4 12 38 55 197 298
2020-07-13 05:00 1.70 13 471 (2008) 0 (2012) 50 1 1 4 4 12 38 55 197 298
2020-07-13 04:30 1.70 13 471 (2008) 0 (2012) 50 1 1 4 4 12 38 55 197 298
2020-07-13 04:00 1.70 13 471 (2008) 0 (2012) 50 1 1 4 4 12 38 55 197 298
2020-07-13 03:30 1.70 13 471 (2008) 0 (2012) 50 1 1 4 4 12 38 55 197 298
2020-07-13 03:00 1.70 13 471 (2008) 0 (2012) 50 1 1 4 4 12 38 55 197 298
2020-07-13 02:30 1.72 14 471 (2008) 0 (2012) 50 1 1 4 4 12 38 55 197 298
2020-07-13 02:00 1.73 15 471 (2008) 0 (2012) 50 1 1 4 4 12 38 55 197 298
2020-07-13 01:30 1.70 13 471 (2008) 0 (2012) 50 1 1 4 4 12 38 55 197 298
2020-07-13 01:00 1.72 14 471 (2008) 0 (2012) 50 1 1 4 4 12 38 55 197 298
2020-07-13 00:30 1.66 11 471 (2008) 0 (2012) 50 1 1 4 4 12 38 55 197 298
2020-07-13 00:00 1.70 13 471 (2008) 0 (2012) 50 1 1 4 4 12 38 55 197 298
2020-07-12 23:30 1.70 13 2150 (1991) 0 (2012) 129 1 1 4 4 15 37 40 134 1640
2020-07-12 23:00 1.72 14 2150 (1991) 0 (2012) 129 1 1 4 4 15 37 40 134 1640
2020-07-12 22:30 1.66 11 2150 (1991) 0 (2012) 129 1 1 4 4 15 37 40 134 1640
2020-07-12 22:00 1.66 11 2150 (1991) 0 (2012) 129 1 1 4 4 15 37 40 134 1640
2020-07-12 21:30 1.67 11 2150 (1991) 0 (2012) 129 1 1 4 4 15 37 40 134 1640
2020-07-12 21:00 1.67 11 2150 (1991) 0 (2012) 129 1 1 4 4 15 37 40 134 1640
2020-07-12 20:30 1.66 11 2150 (1991) 0 (2012) 129 1 1 4 4 15 37 40 134 1640
2020-07-12 20:00 1.71 13 2150 (1991) 0 (2012) 129 1 1 4 4 15 37 40 134 1640
2020-07-12 19:30 1.70 13 2150 (1991) 0 (2012) 129 1 1 4 4 15 37 40 134 1640
2020-07-12 19:00 1.71 13 2150 (1991) 0 (2012) 129 1 1 4 4 15 37 40 134 1640
2020-07-12 18:30 1.71 13 2150 (1991) 0 (2012) 129 1 1 4 4 15 37 40 134 1640
2020-07-12 18:00 1.72 14 2150 (1991) 0 (2012) 129 1 1 4 4 15 37 40 134 1640
2020-07-12 17:30 1.71 13 2150 (1991) 0 (2012) 129 1 1 4 4 15 37 40 134 1640
2020-07-12 17:00 1.74 15 2150 (1991) 0 (2012) 129 1 1 4 4 15 37 40 134 1640
2020-07-12 16:30 1.71 13 2150 (1991) 0 (2012) 129 1 1 4 4 15 37 40 134 1640
2020-07-12 16:00 1.75 16 2150 (1991) 0 (2012) 129 1 1 4 4 15 37 40 134 1640
2020-07-12 15:30 1.73 15 2150 (1991) 0 (2012) 129 1 1 4 4 15 37 40 134 1640
2020-07-12 15:00 1.74 15 2150 (1991) 0 (2012) 129 1 1 4 4 15 37 40 134 1640
2020-07-12 14:30 1.71 13 2150 (1991) 0 (2012) 129 1 1 4 4 15 37 40 134 1640
2020-07-12 14:00 1.72 14 2150 (1991) 0 (2012) 129 1 1 4 4 15 37 40 134 1640
2020-07-12 13:30 1.72 14 2150 (1991) 0 (2012) 129 1 1 4 4 15 37 40 134 1640
2020-07-12 13:00 1.72 14 2150 (1991) 0 (2012) 129 1 1 4 4 15 37 40 134 1640
2020-07-12 12:30 1.70 13 2150 (1991) 0 (2012) 129 1 1 4 4 15 37 40 134 1640
2020-07-12 12:00 1.70 13 2150 (1991) 0 (2012) 129 1 1 4 4 15 37 40 134 1640
2020-07-12 11:30 1.70 13 2150 (1991) 0 (2012) 129 1 1 4 4 15 37 40 134 1640
2020-07-12 11:00 1.71 13 2150 (1991) 0 (2012) 129 1 1 4 4 15 37 40 134 1640
2020-07-12 10:30 1.70 13 2150 (1991) 0 (2012) 129 1 1 4 4 15 37 40 134 1640
2020-07-12 10:00 1.70 13 2150 (1991) 0 (2012) 129 1 1 4 4 15 37 40 134 1640
2020-07-12 09:30 1.70 13 2150 (1991) 0 (2012) 129 1 1 4 4 15 37 40 134 1640
2020-07-12 09:00 1.70 13 2150 (1991) 0 (2012) 129 1 1 4 4 15 37 40 134 1640
2020-07-12 08:30 1.70 13 2150 (1991) 0 (2012) 129 1 1 4 4 15 37 40 134 1640
2020-07-12 08:00 1.69 12 2150 (1991) 0 (2012) 129 1 1 4 4 15 37 40 134 1640
2020-07-12 07:30 1.69 12 2150 (1991) 0 (2012) 129 1 1 4 4 15 37 40 134 1640
2020-07-12 07:00 1.69 12 2150 (1991) 0 (2012) 129 1 1 4 4 15 37 40 134 1640
2020-07-12 06:30 1.69 12 2150 (1991) 0 (2012) 129 1 1 4 4 15 37 40 134 1640
2020-07-12 06:00 1.69 12 2150 (1991) 0 (2012) 129 1 1 4 4 15 37 40 134 1640
2020-07-12 05:30 1.70 13 2150 (1991) 0 (2012) 129 1 1 4 4 15 37 40 134 1640
2020-07-12 05:00 1.70 13 2150 (1991) 0 (2012) 129 1 1 4 4 15 37 40 134 1640
2020-07-12 04:30 1.70 13 2150 (1991) 0 (2012) 129 1 1 4 4 15 37 40 134 1640
2020-07-12 04:00 1.69 12 2150 (1991) 0 (2012) 129 1 1 4 4 15 37 40 134 1640
2020-07-12 03:30 1.70 13 2150 (1991) 0 (2012) 129 1 1 4 4 15 37 40 134 1640
2020-07-12 03:00 1.70 13 2150 (1991) 0 (2012) 129 1 1 4 4 15 37 40 134 1640
2020-07-12 02:30 1.70 13 2150 (1991) 0 (2012) 129 1 1 4 4 15 37 40 134 1640
2020-07-12 02:00 1.70 13 2150 (1991) 0 (2012) 129 1 1 4 4 15 37 40 134 1640
2020-07-12 01:30 1.70 13 2150 (1991) 0 (2012) 129 1 1 4 4 15 37 40 134 1640
2020-07-12 01:00 1.70 13 2150 (1991) 0 (2012) 129 1 1 4 4 15 37 40 134 1640
2020-07-12 00:30 1.70 13 2150 (1991) 0 (2012) 129 1 1 4 4 15 37 40 134 1640
2020-07-12 00:00 1.70 13 2150 (1991) 0 (2012) 129 1 1 4 4 15 37 40 134 1640
2020-07-11 23:30 1.70 13 6930 (1991) 0 (2012) 246 0 1 4 4 16 56 95 199 1310
2020-07-11 23:00 1.70 13 6930 (1991) 0 (2012) 246 0 1 4 4 16 56 95 199 1310
2020-07-11 22:30 1.70 13 6930 (1991) 0 (2012) 246 0 1 4 4 16 56 95 199 1310
2020-07-11 22:00 1.70 13 6930 (1991) 0 (2012) 246 0 1 4 4 16 56 95 199 1310
2020-07-11 21:30 1.70 13 6930 (1991) 0 (2012) 246 0 1 4 4 16 56 95 199 1310
2020-07-11 21:00 1.70 13 6930 (1991) 0 (2012) 246 0 1 4 4 16 56 95 199 1310
2020-07-11 20:30 1.70 13 6930 (1991) 0 (2012) 246 0 1 4 4 16 56 95 199 1310
2020-07-11 20:00 1.71 13 6930 (1991) 0 (2012) 246 0 1 4 4 16 56 95 199 1310
2020-07-11 19:30 1.71 13 6930 (1991) 0 (2012) 246 0 1 4 4 16 56 95 199 1310
2020-07-11 19:00 1.71 13 6930 (1991) 0 (2012) 246 0 1 4 4 16 56 95 199 1310
2020-07-11 18:30 1.71 13 6930 (1991) 0 (2012) 246 0 1 4 4 16 56 95 199 1310
2020-07-11 18:00 1.71 13 6930 (1991) 0 (2012) 246 0 1 4 4 16 56 95 199 1310
2020-07-11 17:30 1.71 13 6930 (1991) 0 (2012) 246 0 1 4 4 16 56 95 199 1310
2020-07-11 17:00 1.72 14 6930 (1991) 0 (2012) 246 0 1 4 4 16 56 95 199 1310
2020-07-11 16:30 1.72 14 6930 (1991) 0 (2012) 246 0 1 4 4 16 56 95 199 1310
2020-07-11 16:00 1.72 14 6930 (1991) 0 (2012) 246 0 1 4 4 16 56 95 199 1310
2020-07-11 15:30 1.72 14 6930 (1991) 0 (2012) 246 0 1 4 4 16 56 95 199 1310
2020-07-11 15:00 1.72 14 6930 (1991) 0 (2012) 246 0 1 4 4 16 56 95 199 1310
2020-07-11 14:30 1.72 14 6930 (1991) 0 (2012) 246 0 1 4 4 16 56 95 199 1310
2020-07-11 14:00 1.72 14 6930 (1991) 0 (2012) 246 0 1 4 4 16 56 95 199 1310
2020-07-11 13:30 1.72 14 6930 (1991) 0 (2012) 246 0 1 4 4 16 56 95 199 1310
2020-07-11 13:00 1.72 14 6930 (1991) 0 (2012) 246 0 1 4 4 16 56 95 199 1310
2020-07-11 12:30 1.72 14 6930 (1991) 0 (2012) 246 0 1 4 4 16 56 95 199 1310
2020-07-11 12:00 1.72 14 6930 (1991) 0 (2012) 246 0 1 4 4 16 56 95 199 1310
2020-07-11 11:30 1.72 14 6930 (1991) 0 (2012) 246 0 1 4 4 16 56 95 199 1310
2020-07-11 11:00 1.73 15 6930 (1991) 0 (2012) 246 0 1 4 4 16 56 95 199 1310
2020-07-11 10:30 1.72 14 6930 (1991) 0 (2012) 246 0 1 4 4 16 56 95 199 1310
2020-07-11 10:00 1.72 14 6930 (1991) 0 (2012) 246 0 1 4 4 16 56 95 199 1310
2020-07-11 09:30 1.73 15 6930 (1991) 0 (2012) 246 0 1 4 4 16 56 95 199 1310
2020-07-11 09:00 1.73 15 6930 (1991) 0 (2012) 246 0 1 4 4 16 56 95 199 1310
2020-07-11 08:30 1.73 15 6930 (1991) 0 (2012) 246 0 1 4 4 16 56 95 199 1310
2020-07-11 08:00 1.73 15 6930 (1991) 0 (2012) 246 0 1 4 4 16 56 95 199 1310
2020-07-11 07:30 1.72 14 6930 (1991) 0 (2012) 246 0 1 4 4 16 56 95 199 1310
2020-07-11 07:00 1.72 14 6930 (1991) 0 (2012) 246 0 1 4 4 16 56 95 199 1310
2020-07-11 06:30 1.72 14 6930 (1991) 0 (2012) 246 0 1 4 4 16 56 95 199 1310
2020-07-11 06:00 1.73 15 6930 (1991) 0 (2012) 246 0 1 4 4 16 56 95 199 1310
2020-07-11 05:30 1.72 14 6930 (1991) 0 (2012) 246 0 1 4 4 16 56 95 199 1310
2020-07-11 05:00 1.73 15 6930 (1991) 0 (2012) 246 0 1 4 4 16 56 95 199 1310
2020-07-11 04:30 1.73 15 6930 (1991) 0 (2012) 246 0 1 4 4 16 56 95 199 1310
2020-07-11 04:00 1.73 15 6930 (1991) 0 (2012) 246 0 1 4 4 16 56 95 199 1310
2020-07-11 03:30 1.73 15 6930 (1991) 0 (2012) 246 0 1 4 4 16 56 95 199 1310
2020-07-11 03:00 1.73 15 6930 (1991) 0 (2012) 246 0 1 4 4 16 56 95 199 1310
2020-07-11 02:30 1.74 15 6930 (1991) 0 (2012) 246 0 1 4 4 16 56 95 199 1310
2020-07-11 02:00 1.73 15 6930 (1991) 0 (2012) 246 0 1 4 4 16 56 95 199 1310
2020-07-11 01:30 1.73 15 6930 (1991) 0 (2012) 246 0 1 4 4 16 56 95 199 1310
2020-07-11 01:00 1.73 15 6930 (1991) 0 (2012) 246 0 1 4 4 16 56 95 199 1310
2020-07-11 00:30 1.74 15 6930 (1991) 0 (2012) 246 0 1 4 4 16 56 95 199 1310
2020-07-11 00:00 1.74 15 6930 (1991) 0 (2012) 246 0 1 4 4 16 56 95 199 1310
2020-07-10 23:30 1.74 15 3520 (1991) 0 (2012) 145 0 1 3 4 13 50 58 232 658
2020-07-10 23:00 1.74 15 3520 (1991) 0 (2012) 145 0 1 3 4 13 50 58 232 658
2020-07-10 22:30 1.74 15 3520 (1991) 0 (2012) 145 0 1 3 4 13 50 58 232 658
2020-07-10 22:00 1.74 15 3520 (1991) 0 (2012) 145 0 1 3 4 13 50 58 232 658
2020-07-10 21:30 1.74 15 3520 (1991) 0 (2012) 145 0 1 3 4 13 50 58 232 658
2020-07-10 21:00 1.74 15 3520 (1991) 0 (2012) 145 0 1 3 4 13 50 58 232 658
2020-07-10 20:30 1.75 16 3520 (1991) 0 (2012) 145 0 1 3 4 13 50 58 232 658
2020-07-10 20:00 1.74 15 3520 (1991) 0 (2012) 145 0 1 3 4 13 50 58 232 658
2020-07-10 19:30 1.75 16 3520 (1991) 0 (2012) 145 0 1 3 4 13 50 58 232 658
2020-07-10 19:00 1.75 16 3520 (1991) 0 (2012) 145 0 1 3 4 13 50 58 232 658
2020-07-10 18:30 1.76 16 3520 (1991) 0 (2012) 145 0 1 3 4 13 50 58 232 658
2020-07-10 18:00 1.76 16 3520 (1991) 0 (2012) 145 0 1 3 4 13 50 58 232 658
2020-07-10 17:30 1.76 16 3520 (1991) 0 (2012) 145 0 1 3 4 13 50 58 232 658
2020-07-10 17:00 1.76 16 3520 (1991) 0 (2012) 145 0 1 3 4 13 50 58 232 658
2020-07-10 16:30 1.77 17 3520 (1991) 0 (2012) 145 0 1 3 4 13 50 58 232 658
2020-07-10 16:00 1.77 17 3520 (1991) 0 (2012) 145 0 1 3 4 13 50 58 232 658
2020-07-10 15:30 1.77 17 3520 (1991) 0 (2012) 145 0 1 3 4 13 50 58 232 658
2020-07-10 15:00 1.77 17 3520 (1991) 0 (2012) 145 0 1 3 4 13 50 58 232 658
2020-07-10 14:30 1.77 17 3520 (1991) 0 (2012) 145 0 1 3 4 13 50 58 232 658
2020-07-10 14:00 1.77 17 3520 (1991) 0 (2012) 145 0 1 3 4 13 50 58 232 658
2020-07-10 13:30 1.77 17 3520 (1991) 0 (2012) 145 0 1 3 4 13 50 58 232 658
2020-07-10 13:00 1.77 17 3520 (1991) 0 (2012) 145 0 1 3 4 13 50 58 232 658
2020-07-10 12:30 1.77 17 3520 (1991) 0 (2012) 145 0 1 3 4 13 50 58 232 658
2020-07-10 12:00 1.77 17 3520 (1991) 0 (2012) 145 0 1 3 4 13 50 58 232 658
2020-07-10 11:30 1.78 17 3520 (1991) 0 (2012) 145 0 1 3 4 13 50 58 232 658
2020-07-10 11:00 1.78 17 3520 (1991) 0 (2012) 145 0 1 3 4 13 50 58 232 658
2020-07-10 10:30 1.78 17 3520 (1991) 0 (2012) 145 0 1 3 4 13 50 58 232 658
2020-07-10 10:00 1.78 17 3520 (1991) 0 (2012) 145 0 1 3 4 13 50 58 232 658
2020-07-10 09:30 1.78 17 3520 (1991) 0 (2012) 145 0 1 3 4 13 50 58 232 658
2020-07-10 09:00 1.77 17 3520 (1991) 0 (2012) 145 0 1 3 4 13 50 58 232 658
2020-07-10 08:30 1.79 18 3520 (1991) 0 (2012) 145 0 1 3 4 13 50 58 232 658
2020-07-10 08:00 1.78 17 3520 (1991) 0 (2012) 145 0 1 3 4 13 50 58 232 658
2020-07-10 07:30 1.79 18 3520 (1991) 0 (2012) 145 0 1 3 4 13 50 58 232 658
2020-07-10 07:00 1.78 17 3520 (1991) 0 (2012) 145 0 1 3 4 13 50 58 232 658
2020-07-10 06:30 1.78 17 3520 (1991) 0 (2012) 145 0 1 3 4 13 50 58 232 658
2020-07-10 06:00 1.78 17 3520 (1991) 0 (2012) 145 0 1 3 4 13 50 58 232 658
2020-07-10 05:30 1.78 17 3520 (1991) 0 (2012) 145 0 1 3 4 13 50 58 232 658
2020-07-10 05:00 1.78 17 3520 (1991) 0 (2012) 145 0 1 3 4 13 50 58 232 658
2020-07-10 04:30 1.79 18 3520 (1991) 0 (2012) 145 0 1 3 4 13 50 58 232 658
2020-07-10 04:00 1.78 17 3520 (1991) 0 (2012) 145 0 1 3 4 13 50 58 232 658
2020-07-10 03:30 1.79 18 3520 (1991) 0 (2012) 145 0 1 3 4 13 50 58 232 658
2020-07-10 03:00 1.79 18 3520 (1991) 0 (2012) 145 0 1 3 4 13 50 58 232 658
2020-07-10 02:30 1.79 18 3520 (1991) 0 (2012) 145 0 1 3 4 13 50 58 232 658
2020-07-10 02:00 1.79 18 3520 (1991) 0 (2012) 145 0 1 3 4 13 50 58 232 658
2020-07-10 01:30 1.79 18 3520 (1991) 0 (2012) 145 0 1 3 4 13 50 58 232 658
2020-07-10 01:00 1.79 18 3520 (1991) 0 (2012) 145 0 1 3 4 13 50 58 232 658
2020-07-10 00:30 1.78 17 3520 (1991) 0 (2012) 145 0 1 3 4 13 50 58 232 658
2020-07-10 00:00 1.79 18 3520 (1991) 0 (2012) 145 0 1 3 4 13 50 58 232 658
2020-07-09 23:30 1.78 17 4000 (2015) 0 (2012) 196 1 1 3 4 10 47 81 199 2380
2020-07-09 23:00 1.79 18 4000 (2015) 0 (2012) 196 1 1 3 4 10 47 81 199 2380
2020-07-09 22:30 1.79 18 4000 (2015) 0 (2012) 196 1 1 3 4 10 47 81 199 2380
2020-07-09 22:00 1.79 18 4000 (2015) 0 (2012) 196 1 1 3 4 10 47 81 199 2380
2020-07-09 21:30 1.80 19 4000 (2015) 0 (2012) 196 1 1 3 4 10 47 81 199 2380
2020-07-09 21:00 1.80 19 4000 (2015) 0 (2012) 196 1 1 3 4 10 47 81 199 2380
2020-07-09 20:30 1.80 19 4000 (2015) 0 (2012) 196 1 1 3 4 10 47 81 199 2380
2020-07-09 20:00 1.80 19 4000 (2015) 0 (2012) 196 1 1 3 4 10 47 81 199 2380
2020-07-09 19:30 1.80 19 4000 (2015) 0 (2012) 196 1 1 3 4 10 47 81 199 2380
2020-07-09 19:00 1.80 19 4000 (2015) 0 (2012) 196 1 1 3 4 10 47 81 199 2380
2020-07-09 18:30 1.80 19 4000 (2015) 0 (2012) 196 1 1 3 4 10 47 81 199 2380
2020-07-09 18:00 1.81 19 4000 (2015) 0 (2012) 196 1 1 3 4 10 47 81 199 2380
2020-07-09 17:30 1.81 19 4000 (2015) 0 (2012) 196 1 1 3 4 10 47 81 199 2380
2020-07-09 17:00 1.81 19 4000 (2015) 0 (2012) 196 1 1 3 4 10 47 81 199 2380
2020-07-09 16:30 1.81 19 4000 (2015) 0 (2012) 196 1 1 3 4 10 47 81 199 2380
2020-07-09 16:00 1.81 19 4000 (2015) 0 (2012) 196 1 1 3 4 10 47 81 199 2380
2020-07-09 15:30 1.81 19 4000 (2015) 0 (2012) 196 1 1 3 4 10 47 81 199 2380
2020-07-09 15:00 1.81 19 4000 (2015) 0 (2012) 196 1 1 3 4 10 47 81 199 2380
2020-07-09 14:30 1.81 19 4000 (2015) 0 (2012) 196 1 1 3 4 10 47 81 199 2380
2020-07-09 14:00 1.80 19 4000 (2015) 0 (2012) 196 1 1 3 4 10 47 81 199 2380
2020-07-09 13:30 1.80 19 4000 (2015) 0 (2012) 196 1 1 3 4 10 47 81 199 2380
2020-07-09 12:30 1.80 19 4000 (2015) 0 (2012) 196 1 1 3 4 10 47 81 199 2380
2020-07-09 12:00 1.80 19 4000 (2015) 0 (2012) 196 1 1 3 4 10 47 81 199 2380
2020-07-09 11:30 1.80 19 4000 (2015) 0 (2012) 196 1 1 3 4 10 47 81 199 2380
2020-07-09 11:00 1.81 19 4000 (2015) 0 (2012) 196 1 1 3 4 10 47 81 199 2380
2020-07-09 10:30 1.80 19 4000 (2015) 0 (2012) 196 1 1 3 4 10 47 81 199 2380
2020-07-09 10:00 1.81 19 4000 (2015) 0 (2012) 196 1 1 3 4 10 47 81 199 2380
2020-07-09 09:30 1.81 19 4000 (2015) 0 (2012) 196 1 1 3 4 10 47 81 199 2380
2020-07-09 09:00 1.81 19 4000 (2015) 0 (2012) 196 1 1 3 4 10 47 81 199 2380
2020-07-09 08:30 1.80 19 4000 (2015) 0 (2012) 196 1 1 3 4 10 47 81 199 2380
2020-07-09 08:00 1.80 19 4000 (2015) 0 (2012) 196 1 1 3 4 10 47 81 199 2380
2020-07-09 07:30 1.81 19 4000 (2015) 0 (2012) 196 1 1 3 4 10 47 81 199 2380
2020-07-09 07:00 1.81 19 4000 (2015) 0 (2012) 196 1 1 3 4 10 47 81 199 2380
2020-07-09 06:30 1.81 19 4000 (2015) 0 (2012) 196 1 1 3 4 10 47 81 199 2380
2020-07-09 06:00 1.83 21 4000 (2015) 0 (2012) 196 1 1 3 4 10 47 81 199 2380
2020-07-09 05:30 1.82 20 4000 (2015) 0 (2012) 196 1 1 3 4 10 47 81 199 2380
2020-07-09 05:00 1.82 20 4000 (2015) 0 (2012) 196 1 1 3 4 10 47 81 199 2380
2020-07-09 04:30 1.82 20 4000 (2015) 0 (2012) 196 1 1 3 4 10 47 81 199 2380
2020-07-09 04:00 1.82 20 4000 (2015) 0 (2012) 196 1 1 3 4 10 47 81 199 2380
2020-07-09 03:30 1.82 20 4000 (2015) 0 (2012) 196 1 1 3 4 10 47 81 199 2380
2020-07-09 03:00 1.83 21 4000 (2015) 0 (2012) 196 1 1 3 4 10 47 81 199 2380
2020-07-09 02:30 1.84 21 4000 (2015) 0 (2012) 196 1 1 3 4 10 47 81 199 2380
2020-07-09 02:00 1.83 21 4000 (2015) 0 (2012) 196 1 1 3 4 10 47 81 199 2380
2020-07-09 01:30 1.84 21 4000 (2015) 0 (2012) 196 1 1 3 4 10 47 81 199 2380
2020-07-09 01:00 1.83 21 4000 (2015) 0 (2012) 196 1 1 3 4 10 47 81 199 2380
2020-07-09 00:30 1.83 21 4000 (2015) 0 (2012) 196 1 1 3 4 10 47 81 199 2380
2020-07-09 00:00 1.81 19 4000 (2015) 0 (2012) 196 1 1 3 4 10 47 81 199 2380
2020-07-08 23:30 1.84 21 3970 (2015) 0 (2012) 334 0 2 4 5 11 66 288 1640 3090
2020-07-08 23:00 1.84 21 3970 (2015) 0 (2012) 334 0 2 4 5 11 66 288 1640 3090
2020-07-08 22:30 1.84 21 3970 (2015) 0 (2012) 334 0 2 4 5 11 66 288 1640 3090
2020-07-08 22:00 1.84 21 3970 (2015) 0 (2012) 334 0 2 4 5 11 66 288 1640 3090
2020-07-08 21:30 1.85 22 3970 (2015) 0 (2012) 334 0 2 4 5 11 66 288 1640 3090
2020-07-08 21:00 1.85 22 3970 (2015) 0 (2012) 334 0 2 4 5 11 66 288 1640 3090
2020-07-08 20:30 1.85 22 3970 (2015) 0 (2012) 334 0 2 4 5 11 66 288 1640 3090
2020-07-08 20:00 1.85 22 3970 (2015) 0 (2012) 334 0 2 4 5 11 66 288 1640 3090
2020-07-08 19:30 1.85 22 3970 (2015) 0 (2012) 334 0 2 4 5 11 66 288 1640 3090
2020-07-08 19:00 1.82 20 3970 (2015) 0 (2012) 334 0 2 4 5 11 66 288 1640 3090
2020-07-08 18:30 1.83 21 3970 (2015) 0 (2012) 334 0 2 4 5 11 66 288 1640 3090
2020-07-08 18:00 1.83 21 3970 (2015) 0 (2012) 334 0 2 4 5 11 66 288 1640 3090
2020-07-08 17:30 1.85 22 3970 (2015) 0 (2012) 334 0 2 4 5 11 66 288 1640 3090
2020-07-08 17:00 1.86 23 3970 (2015) 0 (2012) 334 0 2 4 5 11 66 288 1640 3090
2020-07-08 16:30 1.86 23 3970 (2015) 0 (2012) 334 0 2 4 5 11 66 288 1640 3090
2020-07-08 16:00 1.83 21 3970 (2015) 0 (2012) 334 0 2 4 5 11 66 288 1640 3090
2020-07-08 15:30 1.87 23 3970 (2015) 0 (2012) 334 0 2 4 5 11 66 288 1640 3090
2020-07-08 15:00 1.83 21 3970 (2015) 0 (2012) 334 0 2 4 5 11 66 288 1640 3090
2020-07-08 14:30 1.87 23 3970 (2015) 0 (2012) 334 0 2 4 5 11 66 288 1640 3090
2020-07-08 14:00 1.84 21 3970 (2015) 0 (2012) 334 0 2 4 5 11 66 288 1640 3090
2020-07-08 13:30 1.87 23 3970 (2015) 0 (2012) 334 0 2 4 5 11 66 288 1640 3090
2020-07-08 13:00 1.87 23 3970 (2015) 0 (2012) 334 0 2 4 5 11 66 288 1640 3090
2020-07-08 12:30 1.88 24 3970 (2015) 0 (2012) 334 0 2 4 5 11 66 288 1640 3090
2020-07-08 12:00 1.88 24 3970 (2015) 0 (2012) 334 0 2 4 5 11 66 288 1640 3090
2020-07-08 11:30 1.88 24 3970 (2015) 0 (2012) 334 0 2 4 5 11 66 288 1640 3090
2020-07-08 11:00 1.89 25 3970 (2015) 0 (2012) 334 0 2 4 5 11 66 288 1640 3090
2020-07-08 10:30 1.89 25 3970 (2015) 0 (2012) 334 0 2 4 5 11 66 288 1640 3090
2020-07-08 10:00 1.89 25 3970 (2015) 0 (2012) 334 0 2 4 5 11 66 288 1640 3090
2020-07-08 09:30 1.89 25 3970 (2015) 0 (2012) 334 0 2 4 5 11 66 288 1640 3090
2020-07-08 09:00 1.85 22 3970 (2015) 0 (2012) 334 0 2 4 5 11 66 288 1640 3090
2020-07-08 08:30 1.85 22 3970 (2015) 0 (2012) 334 0 2 4 5 11 66 288 1640 3090
2020-07-08 08:00 1.85 22 3970 (2015) 0 (2012) 334 0 2 4 5 11 66 288 1640 3090
2020-07-08 07:30 1.89 25 3970 (2015) 0 (2012) 334 0 2 4 5 11 66 288 1640 3090
2020-07-08 07:00 1.91 26 3970 (2015) 0 (2012) 334 0 2 4 5 11 66 288 1640 3090
2020-07-08 06:30 1.91 26 3970 (2015) 0 (2012) 334 0 2 4 5 11 66 288 1640 3090
2020-07-08 06:00 1.85 22 3970 (2015) 0 (2012) 334 0 2 4 5 11 66 288 1640 3090
2020-07-08 05:30 1.85 22 3970 (2015) 0 (2012) 334 0 2 4 5 11 66 288 1640 3090
2020-07-08 05:00 1.86 23 3970 (2015) 0 (2012) 334 0 2 4 5 11 66 288 1640 3090
2020-07-08 04:30 1.86 23 3970 (2015) 0 (2012) 334 0 2 4 5 11 66 288 1640 3090
2020-07-08 04:00 1.93 28 3970 (2015) 0 (2012) 334 0 2 4 5 11 66 288 1640 3090
2020-07-08 03:30 1.92 27 3970 (2015) 0 (2012) 334 0 2 4 5 11 66 288 1640 3090
2020-07-08 03:00 1.88 24 3970 (2015) 0 (2012) 334 0 2 4 5 11 66 288 1640 3090
2020-07-08 02:30 1.92 27 3970 (2015) 0 (2012) 334 0 2 4 5 11 66 288 1640 3090
2020-07-08 02:00 1.89 25 3970 (2015) 0 (2012) 334 0 2 4 5 11 66 288 1640 3090
2020-07-08 01:30 1.93 28 3970 (2015) 0 (2012) 334 0 2 4 5 11 66 288 1640 3090
2020-07-08 01:00 1.93 28 3970 (2015) 0 (2012) 334 0 2 4 5 11 66 288 1640 3090
2020-07-08 00:30 1.91 26 3970 (2015) 0 (2012) 334 0 2 4 5 11 66 288 1640 3090
2020-07-08 00:00 1.89 25 3970 (2015) 0 (2012) 334 0 2 4 5 11 66 288 1640 3090
2020-07-07 23:30 1.90 26 3080 (1987) 0 (2012) 227 1 2 4 6 12 83 138 1360 1580
2020-07-07 23:00 1.91 26 3080 (1987) 0 (2012) 227 1 2 4 6 12 83 138 1360 1580
2020-07-07 22:30 1.90 26 3080 (1987) 0 (2012) 227 1 2 4 6 12 83 138 1360 1580
2020-07-07 22:00 1.89 25 3080 (1987) 0 (2012) 227 1 2 4 6 12 83 138 1360 1580
2020-07-07 21:30 1.91 26 3080 (1987) 0 (2012) 227 1 2 4 6 12 83 138 1360 1580
2020-07-07 21:00 1.89 25 3080 (1987) 0 (2012) 227 1 2 4 6 12 83 138 1360 1580
2020-07-07 20:30 1.89 25 3080 (1987) 0 (2012) 227 1 2 4 6 12 83 138 1360 1580
2020-07-07 20:00 1.94 29 3080 (1987) 0 (2012) 227 1 2 4 6 12 83 138 1360 1580
2020-07-07 19:30 1.89 25 3080 (1987) 0 (2012) 227 1 2 4 6 12 83 138 1360 1580
2020-07-07 19:00 1.90 26 3080 (1987) 0 (2012) 227 1 2 4 6 12 83 138 1360 1580
2020-07-07 18:30 1.91 26 3080 (1987) 0 (2012) 227 1 2 4 6 12 83 138 1360 1580
2020-07-07 18:00 1.90 26 3080 (1987) 0 (2012) 227 1 2 4 6 12 83 138 1360 1580
2020-07-07 17:30 1.92 27 3080 (1987) 0 (2012) 227 1 2 4 6 12 83 138 1360 1580
2020-07-07 17:00 1.92 27 3080 (1987) 0 (2012) 227 1 2 4 6 12 83 138 1360 1580
2020-07-07 16:30 1.92 27 3080 (1987) 0 (2012) 227 1 2 4 6 12 83 138 1360 1580
2020-07-07 16:00 1.92 27 3080 (1987) 0 (2012) 227 1 2 4 6 12 83 138 1360 1580
2020-07-07 15:30 1.92 27 3080 (1987) 0 (2012) 227 1 2 4 6 12 83 138 1360 1580
2020-07-07 15:00 1.93 28 3080 (1987) 0 (2012) 227 1 2 4 6 12 83 138 1360 1580
2020-07-07 14:30 1.94 29 3080 (1987) 0 (2012) 227 1 2 4 6 12 83 138 1360 1580
2020-07-07 14:00 1.98 32 3080 (1987) 0 (2012) 227 1 2 4 6 12 83 138 1360 1580
2020-07-07 13:30 1.94 29 3080 (1987) 0 (2012) 227 1 2 4 6 12 83 138 1360 1580
2020-07-07 13:00 1.97 31 3080 (1987) 0 (2012) 227 1 2 4 6 12 83 138 1360 1580
2020-07-07 12:30 1.94 29 3080 (1987) 0 (2012) 227 1 2 4 6 12 83 138 1360 1580
2020-07-07 12:00 1.98 32 3080 (1987) 0 (2012) 227 1 2 4 6 12 83 138 1360 1580
2020-07-07 11:30 1.95 30 3080 (1987) 0 (2012) 227 1 2 4 6 12 83 138 1360 1580
2020-07-07 11:00 1.95 30 3080 (1987) 0 (2012) 227 1 2 4 6 12 83 138 1360 1580
2020-07-07 10:30 1.97 31 3080 (1987) 0 (2012) 227 1 2 4 6 12 83 138 1360 1580
2020-07-07 10:00 1.98 32 3080 (1987) 0 (2012) 227 1 2 4 6 12 83 138 1360 1580
2020-07-07 09:30 1.96 30 3080 (1987) 0 (2012) 227 1 2 4 6 12 83 138 1360 1580
2020-07-07 09:00 1.96 30 3080 (1987) 0 (2012) 227 1 2 4 6 12 83 138 1360 1580
2020-07-07 08:30 1.95 30 3080 (1987) 0 (2012) 227 1 2 4 6 12 83 138 1360 1580
2020-07-07 08:00 1.96 30 3080 (1987) 0 (2012) 227 1 2 4 6 12 83 138 1360 1580
2020-07-07 07:30 1.99 33 3080 (1987) 0 (2012) 227 1 2 4 6 12 83 138 1360 1580
2020-07-07 07:00 1.97 31 3080 (1987) 0 (2012) 227 1 2 4 6 12 83 138 1360 1580
2020-07-07 06:30 1.94 29 3080 (1987) 0 (2012) 227 1 2 4 6 12 83 138 1360 1580
2020-07-07 06:00 1.94 29 3080 (1987) 0 (2012) 227 1 2 4 6 12 83 138 1360 1580
2020-07-07 05:30 1.95 30 3080 (1987) 0 (2012) 227 1 2 4 6 12 83 138 1360 1580
2020-07-07 05:00 1.95 30 3080 (1987) 0 (2012) 227 1 2 4 6 12 83 138 1360 1580
2020-07-07 04:30 1.96 30 3080 (1987) 0 (2012) 227 1 2 4 6 12 83 138 1360 1580
2020-07-07 04:00 1.96 30 3080 (1987) 0 (2012) 227 1 2 4 6 12 83 138 1360 1580
2020-07-07 03:30 1.95 30 3080 (1987) 0 (2012) 227 1 2 4 6 12 83 138 1360 1580
2020-07-07 03:00 1.96 30 3080 (1987) 0 (2012) 227 1 2 4 6 12 83 138 1360 1580
2020-07-07 02:30 1.97 31 3080 (1987) 0 (2012) 227 1 2 4 6 12 83 138 1360 1580
2020-07-07 02:00 1.97 31 3080 (1987) 0 (2012) 227 1 2 4 6 12 83 138 1360 1580
2020-07-07 01:30 1.97 31 3080 (1987) 0 (2012) 227 1 2 4 6 12 83 138 1360 1580
2020-07-07 01:00 1.96 30 3080 (1987) 0 (2012) 227 1 2 4 6 12 83 138 1360 1580
2020-07-07 00:30 1.97 31 3080 (1987) 0 (2012) 227 1 2 4 6 12 83 138 1360 1580
2020-07-07 00:00 1.98 32 3080 (1987) 0 (2012) 227 1 2 4 6 12 83 138 1360 1580
2020-07-06 23:30 1.98 32 861 (2016) 0 (2012) 73 1 2 5 7 17 71 97 212 320
2020-07-06 23:00 1.99 33 861 (2016) 0 (2012) 73 1 2 5 7 17 71 97 212 320
2020-07-06 22:30 1.99 33 861 (2016) 0 (2012) 73 1 2 5 7 17 71 97 212 320
2020-07-06 22:00 1.98 32 861 (2016) 0 (2012) 73 1 2 5 7 17 71 97 212 320
2020-07-06 21:30 2.00 34 861 (2016) 0 (2012) 73 1 2 5 7 17 71 97 212 320
2020-07-06 21:00 1.98 32 861 (2016) 0 (2012) 73 1 2 5 7 17 71 97 212 320
2020-07-06 20:30 2.00 34 861 (2016) 0 (2012) 73 1 2 5 7 17 71 97 212 320
2020-07-06 20:00 2.00 34 861 (2016) 0 (2012) 73 1 2 5 7 17 71 97 212 320
2020-07-06 19:30 2.00 34 861 (2016) 0 (2012) 73 1 2 5 7 17 71 97 212 320
2020-07-06 19:00 2.00 34 861 (2016) 0 (2012) 73 1 2 5 7 17 71 97 212 320
2020-07-06 18:30 2.00 34 861 (2016) 0 (2012) 73 1 2 5 7 17 71 97 212 320
2020-07-06 18:00 2.02 36 861 (2016) 0 (2012) 73 1 2 5 7 17 71 97 212 320
2020-07-06 17:30 2.02 36 861 (2016) 0 (2012) 73 1 2 5 7 17 71 97 212 320
2020-07-06 17:00 2.03 36 861 (2016) 0 (2012) 73 1 2 5 7 17 71 97 212 320
2020-07-06 16:30 2.03 36 861 (2016) 0 (2012) 73 1 2 5 7 17 71 97 212 320
2020-07-06 16:00 2.02 36 861 (2016) 0 (2012) 73 1 2 5 7 17 71 97 212 320
2020-07-06 15:30 2.01 35 861 (2016) 0 (2012) 73 1 2 5 7 17 71 97 212 320
2020-07-06 15:00 2.02 36 861 (2016) 0 (2012) 73 1 2 5 7 17 71 97 212 320
2020-07-06 14:30 2.02 36 861 (2016) 0 (2012) 73 1 2 5 7 17 71 97 212 320
2020-07-06 14:00 2.04 37 861 (2016) 0 (2012) 73 1 2 5 7 17 71 97 212 320
2020-07-06 13:30 2.05 38 861 (2016) 0 (2012) 73 1 2 5 7 17 71 97 212 320
2020-07-06 13:00 2.06 39 861 (2016) 0 (2012) 73 1 2 5 7 17 71 97 212 320
2020-07-06 12:30 2.07 40 861 (2016) 0 (2012) 73 1 2 5 7 17 71 97 212 320
2020-07-06 12:00 2.05 38 861 (2016) 0 (2012) 73 1 2 5 7 17 71 97 212 320
2020-07-06 11:30 2.06 39 861 (2016) 0 (2012) 73 1 2 5 7 17 71 97 212 320
2020-07-06 11:00 2.07 40 861 (2016) 0 (2012) 73 1 2 5 7 17 71 97 212 320
2020-07-06 10:30 2.07 40 861 (2016) 0 (2012) 73 1 2 5 7 17 71 97 212 320
2020-07-06 10:00 2.06 39 861 (2016) 0 (2012) 73 1 2 5 7 17 71 97 212 320
2020-07-06 09:30 2.08 41 861 (2016) 0 (2012) 73 1 2 5 7 17 71 97 212 320
2020-07-06 09:00 2.08 41 861 (2016) 0 (2012) 73 1 2 5 7 17 71 97 212 320
2020-07-06 08:30 2.08 41 861 (2016) 0 (2012) 73 1 2 5 7 17 71 97 212 320
2020-07-06 08:00 2.08 41 861 (2016) 0 (2012) 73 1 2 5 7 17 71 97 212 320
2020-07-06 07:30 2.08 41 861 (2016) 0 (2012) 73 1 2 5 7 17 71 97 212 320
2020-07-06 07:00 2.09 42 861 (2016) 0 (2012) 73 1 2 5 7 17 71 97 212 320
2020-07-06 06:30 2.09 42 861 (2016) 0 (2012) 73 1 2 5 7 17 71 97 212 320
2020-07-06 06:00 2.10 43 861 (2016) 0 (2012) 73 1 2 5 7 17 71 97 212 320
2020-07-06 05:30 2.12 45 861 (2016) 0 (2012) 73 1 2 5 7 17 71 97 212 320
2020-07-06 05:00 2.11 44 861 (2016) 0 (2012) 73 1 2 5 7 17 71 97 212 320
2020-07-06 04:30 2.11 44 861 (2016) 0 (2012) 73 1 2 5 7 17 71 97 212 320
2020-07-06 04:00 2.12 45 861 (2016) 0 (2012) 73 1 2 5 7 17 71 97 212 320
2020-07-06 03:30 2.12 45 861 (2016) 0 (2012) 73 1 2 5 7 17 71 97 212 320
2020-07-06 03:00 2.13 46 861 (2016) 0 (2012) 73 1 2 5 7 17 71 97 212 320
2020-07-06 02:30 2.13 46 861 (2016) 0 (2012) 73 1 2 5 7 17 71 97 212 320
2020-07-06 02:00 2.14 47 861 (2016) 0 (2012) 73 1 2 5 7 17 71 97 212 320
2020-07-06 01:30 2.14 47 861 (2016) 0 (2012) 73 1 2 5 7 17 71 97 212 320
2020-07-06 01:00 2.15 48 861 (2016) 0 (2012) 73 1 2 5 7 17 71 97 212 320
2020-07-06 00:30 2.16 49 861 (2016) 0 (2012) 73 1 2 5 7 17 71 97 212 320
2020-07-06 00:00 2.16 49 861 (2016) 0 (2012) 73 1 2 5 7 17 71 97 212 320

A total of 366 rows are displayed for years 1980 through 2019.